Talcott Village, Connecticut
Current Conditions -  °F | °C
As of 7:53 AM on Saturday 25 Oct 2014 (Local Time) from KHFD Reporting Station
Clear Clear  
Wind Chill: 41°   Ceiling: Unl
Heat Index: 46°   Visibility: 10mi
Dew Point: 42°   Wind: 10mph
Humidity: 86%   Direction: 220°SW
Pressure: 29.83"   Gusts: NA
Location:  41.7251°N, 72.8318°W
Report Text: KHFD 251153Z 22009KT 10SM CLR 08/06 A2983 RMK AO2 SLP102 70002 T00780056 10100 20039 53009
Loading
Personal Weather Stations






























Interactive Weather Map
Tropical Storm Tracking
New forecast layout! Learn more

10-Day Weather Forecast

Advertisements
Track Severe Weather on mobile